sensor_id;sensor_type;location;lat;lon;timestamp;temperature;humidity
20091;DHT22;10205;49.678;6.560;2022-07-04T00:01:08;28.60;32.20
20091;DHT22;10205;49.678;6.560;2022-07-04T00:03:35;28.60;32.30
20091;DHT22;10205;49.678;6.560;2022-07-04T00:06:02;28.50;32.40
20091;DHT22;10205;49.678;6.560;2022-07-04T00:08:31;28.50;32.40
20091;DHT22;10205;49.678;6.560;2022-07-04T00:10:58;28.40;32.60
20091;DHT22;10205;49.678;6.560;2022-07-04T00:13:25;28.40;32.70
20091;DHT22;10205;49.678;6.560;2022-07-04T00:15:52;28.30;32.80
20091;DHT22;10205;49.678;6.560;2022-07-04T00:18:20;28.30;32.80
20091;DHT22;10205;49.678;6.560;2022-07-04T00:20:47;28.20;32.80
20091;DHT22;10205;49.678;6.560;2022-07-04T00:23:14;28.10;32.80
20091;DHT22;10205;49.678;6.560;2022-07-04T00:25:43;28.10;33.60
20091;DHT22;10205;49.678;6.560;2022-07-04T00:28:10;28.00;33.00
20091;DHT22;10205;49.678;6.560;2022-07-04T00:30:37;28.00;33.10
20091;DHT22;10205;49.678;6.560;2022-07-04T00:33:04;27.90;33.10
20091;DHT22;10205;49.678;6.560;2022-07-04T00:35:31;27.80;33.20
20091;DHT22;10205;49.678;6.560;2022-07-04T00:37:58;27.80;33.30
20091;DHT22;10205;49.678;6.560;2022-07-04T00:40:26;27.70;33.30
20091;DHT22;10205;49.678;6.560;2022-07-04T00:43:00;27.70;33.40
20091;DHT22;10205;49.678;6.560;2022-07-04T00:45:28;27.60;33.60
20091;DHT22;10205;49.678;6.560;2022-07-04T00:47:55;27.60;33.60
20091;DHT22;10205;49.678;6.560;2022-07-04T00:50:22;27.50;33.60
20091;DHT22;10205;49.678;6.560;2022-07-04T00:52:51;27.50;33.70
20091;DHT22;10205;49.678;6.560;2022-07-04T00:55:19;27.40;33.70
20091;DHT22;10205;49.678;6.560;2022-07-04T00:57:48;27.30;33.80
20091;DHT22;10205;49.678;6.560;2022-07-04T01:00:17;27.30;33.80
20091;DHT22;10205;49.678;6.560;2022-07-04T01:02:46;27.20;34.00
20091;DHT22;10205;49.678;6.560;2022-07-04T01:05:14;27.20;34.00
20091;DHT22;10205;49.678;6.560;2022-07-04T01:07:42;27.10;34.20
20091;DHT22;10205;49.678;6.560;2022-07-04T01:10:10;27.10;34.20
20091;DHT22;10205;49.678;6.560;2022-07-04T01:12:38;27.10;34.30
20091;DHT22;10205;49.678;6.560;2022-07-04T01:15:06;27.00;34.30
20091;DHT22;10205;49.678;6.560;2022-07-04T01:17:36;26.90;34.40
20091;DHT22;10205;49.678;6.560;2022-07-04T01:20:04;26.90;34.50
20091;DHT22;10205;49.678;6.560;2022-07-04T01:22:33;26.80;34.50
20091;DHT22;10205;49.678;6.560;2022-07-04T01:25:00;26.70;34.60
20091;DHT22;10205;49.678;6.560;2022-07-04T01:27:28;26.70;34.60
20091;DHT22;10205;49.678;6.560;2022-07-04T01:29:55;26.70;34.80
20091;DHT22;10205;49.678;6.560;2022-07-04T01:32:23;26.70;34.90
20091;DHT22;10205;49.678;6.560;2022-07-04T01:34:50;26.60;34.90
20091;DHT22;10205;49.678;6.560;2022-07-04T01:37:17;26.50;35.20
20091;DHT22;10205;49.678;6.560;2022-07-04T01:39:45;26.50;35.70
20091;DHT22;10205;49.678;6.560;2022-07-04T01:42:12;26.40;35.50
20091;DHT22;10205;49.678;6.560;2022-07-04T01:44:39;26.40;35.40
20091;DHT22;10205;49.678;6.560;2022-07-04T01:47:07;26.30;35.50
20091;DHT22;10205;49.678;6.560;2022-07-04T01:49:34;26.30;35.70
20091;DHT22;10205;49.678;6.560;2022-07-04T01:52:01;26.20;35.70
20091;DHT22;10205;49.678;6.560;2022-07-04T01:54:29;26.20;35.80
20091;DHT22;10205;49.678;6.560;2022-07-04T01:56:57;26.10;35.90
20091;DHT22;10205;49.678;6.560;2022-07-04T01:59:24;26.10;36.10
20091;DHT22;10205;49.678;6.560;2022-07-04T02:02:05;26.00;35.90
20091;DHT22;10205;49.678;6.560;2022-07-04T02:04:32;26.00;36.00
20091;DHT22;10205;49.678;6.560;2022-07-04T02:07:00;25.90;36.20
20091;DHT22;10205;49.678;6.560;2022-07-04T02:09:28;25.90;36.30
20091;DHT22;10205;49.678;6.560;2022-07-04T02:11:57;25.80;36.30
20091;DHT22;10205;49.678;6.560;2022-07-04T02:14:43;25.80;36.30
20091;DHT22;10205;49.678;6.560;2022-07-04T02:17:10;25.70;36.40
20091;DHT22;10205;49.678;6.560;2022-07-04T02:19:37;25.70;36.40
20091;DHT22;10205;49.678;6.560;2022-07-04T02:22:06;25.60;36.40
20091;DHT22;10205;49.678;6.560;2022-07-04T02:24:33;25.60;36.60
20091;DHT22;10205;49.678;6.560;2022-07-04T02:27:01;25.60;36.80
20091;DHT22;10205;49.678;6.560;2022-07-04T02:29:29;25.50;36.80
20091;DHT22;10205;49.678;6.560;2022-07-04T02:31:56;25.40;36.70
20091;DHT22;10205;49.678;6.560;2022-07-04T02:34:24;25.40;36.80
20091;DHT22;10205;49.678;6.560;2022-07-04T02:36:51;25.40;36.90
20091;DHT22;10205;49.678;6.560;2022-07-04T02:39:18;25.30;36.70
20091;DHT22;10205;49.678;6.560;2022-07-04T02:41:45;25.30;37.00
20091;DHT22;10205;49.678;6.560;2022-07-04T02:44:14;25.30;37.10
20091;DHT22;10205;49.678;6.560;2022-07-04T02:46:41;25.20;37.10
20091;DHT22;10205;49.678;6.560;2022-07-04T02:49:08;25.10;37.20
20091;DHT22;10205;49.678;6.560;2022-07-04T02:51:36;25.10;37.10
20091;DHT22;10205;49.678;6.560;2022-07-04T02:54:03;25.00;37.30
20091;DHT22;10205;49.678;6.560;2022-07-04T02:56:30;25.00;37.30
20091;DHT22;10205;49.678;6.560;2022-07-04T02:58:58;25.00;37.40
20091;DHT22;10205;49.678;6.560;2022-07-04T03:01:26;24.90;37.30
20091;DHT22;10205;49.678;6.560;2022-07-04T03:03:53;24.80;37.50
20091;DHT22;10205;49.678;6.560;2022-07-04T03:06:20;24.80;37.40
20091;DHT22;10205;49.678;6.560;2022-07-04T03:08:48;24.80;37.60
20091;DHT22;10205;49.678;6.560;2022-07-04T03:11:15;24.70;37.60
20091;DHT22;10205;49.678;6.560;2022-07-04T03:13:42;24.70;37.70
20091;DHT22;10205;49.678;6.560;2022-07-04T03:16:09;24.70;37.70
20091;DHT22;10205;49.678;6.560;2022-07-04T03:18:38;24.60;37.80
20091;DHT22;10205;49.678;6.560;2022-07-04T03:21:05;24.60;38.00
20091;DHT22;10205;49.678;6.560;2022-07-04T03:23:32;24.50;38.00
20091;DHT22;10205;49.678;6.560;2022-07-04T03:26:00;24.50;38.00
20091;DHT22;10205;49.678;6.560;2022-07-04T03:28:28;24.40;38.10
20091;DHT22;10205;49.678;6.560;2022-07-04T03:30:55;24.40;38.10
20091;DHT22;10205;49.678;6.560;2022-07-04T03:33:24;24.40;38.20
20091;DHT22;10205;49.678;6.560;2022-07-04T03:35:53;24.30;38.20
20091;DHT22;10205;49.678;6.560;2022-07-04T03:38:20;24.30;38.40
20091;DHT22;10205;49.678;6.560;2022-07-04T03:40:47;24.20;38.30
20091;DHT22;10205;49.678;6.560;2022-07-04T03:43:14;24.20;38.50
20091;DHT22;10205;49.678;6.560;2022-07-04T03:45:41;24.10;39.10
20091;DHT22;10205;49.678;6.560;2022-07-04T03:48:08;24.10;38.50
20091;DHT22;10205;49.678;6.560;2022-07-04T03:50:35;24.10;38.60
20091;DHT22;10205;49.678;6.560;2022-07-04T03:53:04;24.00;38.60
20091;DHT22;10205;49.678;6.560;2022-07-04T03:55:31;24.00;38.80
20091;DHT22;10205;49.678;6.560;2022-07-04T03:57:58;23.90;38.70
20091;DHT22;10205;49.678;6.560;2022-07-04T04:00:25;23.90;38.80
20091;DHT22;10205;49.678;6.560;2022-07-04T04:02:52;23.80;38.70
20091;DHT22;10205;49.678;6.560;2022-07-04T04:05:19;23.80;38.90
20091;DHT22;10205;49.678;6.560;2022-07-04T04:07:57;23.80;39.10
20091;DHT22;10205;49.678;6.560;2022-07-04T04:10:29;23.70;38.90
20091;DHT22;10205;49.678;6.560;2022-07-04T04:12:57;23.70;39.10
20091;DHT22;10205;49.678;6.560;2022-07-04T04:15:24;23.70;39.10
20091;DHT22;10205;49.678;6.560;2022-07-04T04:17:51;23.60;39.20
20091;DHT22;10205;49.678;6.560;2022-07-04T04:20:19;23.60;39.20
20091;DHT22;10205;49.678;6.560;2022-07-04T04:22:46;23.50;39.20
20091;DHT22;10205;49.678;6.560;2022-07-04T04:25:13;23.50;39.30
20091;DHT22;10205;49.678;6.560;2022-07-04T04:27:41;23.40;39.30
20091;DHT22;10205;49.678;6.560;2022-07-04T04:30:09;23.40;39.50
20091;DHT22;10205;49.678;6.560;2022-07-04T04:32:37;23.40;39.50
20091;DHT22;10205;49.678;6.560;2022-07-04T04:35:05;23.30;39.40
20091;DHT22;10205;49.678;6.560;2022-07-04T04:37:33;23.30;39.50
20091;DHT22;10205;49.678;6.560;2022-07-04T04:40:00;23.20;39.50
20091;DHT22;10205;49.678;6.560;2022-07-04T04:42:27;23.20;39.60
20091;DHT22;10205;49.678;6.560;2022-07-04T04:44:56;23.20;39.80
20091;DHT22;10205;49.678;6.560;2022-07-04T04:47:23;23.20;39.90
20091;DHT22;10205;49.678;6.560;2022-07-04T04:49:51;23.10;39.80
20091;DHT22;10205;49.678;6.560;2022-07-04T04:52:18;23.10;39.90
20091;DHT22;10205;49.678;6.560;2022-07-04T04:54:45;23.10;39.80
20091;DHT22;10205;49.678;6.560;2022-07-04T04:57:12;23.00;39.90
20091;DHT22;10205;49.678;6.560;2022-07-04T04:59:39;23.00;40.00
20091;DHT22;10205;49.678;6.560;2022-07-04T05:02:07;22.90;40.10
20091;DHT22;10205;49.678;6.560;2022-07-04T05:04:35;22.90;40.20
20091;DHT22;10205;49.678;6.560;2022-07-04T05:07:02;22.90;40.90
20091;DHT22;10205;49.678;6.560;2022-07-04T05:09:30;22.80;40.20
20091;DHT22;10205;49.678;6.560;2022-07-04T05:11:57;22.80;40.20
20091;DHT22;10205;49.678;6.560;2022-07-04T05:14:24;22.80;40.40
20091;DHT22;10205;49.678;6.560;2022-07-04T05:16:51;22.70;40.50
20091;DHT22;10205;49.678;6.560;2022-07-04T05:19:19;22.70;40.50
20091;DHT22;10205;49.678;6.560;2022-07-04T05:21:46;22.70;40.70
20091;DHT22;10205;49.678;6.560;2022-07-04T05:24:14;22.60;40.70
20091;DHT22;10205;49.678;6.560;2022-07-04T05:26:41;22.60;40.70
20091;DHT22;10205;49.678;6.560;2022-07-04T05:29:09;22.60;40.90
20091;DHT22;10205;49.678;6.560;2022-07-04T05:31:36;22.60;40.90
20091;DHT22;10205;49.678;6.560;2022-07-04T05:34:03;22.60;40.90
20091;DHT22;10205;49.678;6.560;2022-07-04T05:36:32;22.50;40.90
20091;DHT22;10205;49.678;6.560;2022-07-04T05:38:59;22.50;41.10
20091;DHT22;10205;49.678;6.560;2022-07-04T05:41:26;22.50;42.10
20091;DHT22;10205;49.678;6.560;2022-07-04T05:43:53;22.50;42.20
20091;DHT22;10205;49.678;6.560;2022-07-04T05:46:20;22.40;41.70
20091;DHT22;10205;49.678;6.560;2022-07-04T05:48:47;22.40;42.50
20091;DHT22;10205;49.678;6.560;2022-07-04T05:51:14;22.30;42.50
20091;DHT22;10205;49.678;6.560;2022-07-04T05:53:43;22.30;42.20
20091;DHT22;10205;49.678;6.560;2022-07-04T05:56:10;22.20;42.90
20091;DHT22;10205;49.678;6.560;2022-07-04T05:58:37;22.20;42.90
20091;DHT22;10205;49.678;6.560;2022-07-04T06:01:04;22.20;42.50
20091;DHT22;10205;49.678;6.560;2022-07-04T06:03:32;22.20;42.60
20091;DHT22;10205;49.678;6.560;2022-07-04T06:05:59;22.10;42.50
20091;DHT22;10205;49.678;6.560;2022-07-04T06:08:26;22.10;43.40
20091;DHT22;10205;49.678;6.560;2022-07-04T06:10:54;22.10;44.40
20091;DHT22;10205;49.678;6.560;2022-07-04T06:13:22;22.10;43.40
20091;DHT22;10205;49.678;6.560;2022-07-04T06:15:49;22.10;43.70
20091;DHT22;10205;49.678;6.560;2022-07-04T06:18:16;22.10;44.30
20091;DHT22;10205;49.678;6.560;2022-07-04T06:20:44;22.00;44.30
20091;DHT22;10205;49.678;6.560;2022-07-04T06:23:11;22.00;45.40
20091;DHT22;10205;49.678;6.560;2022-07-04T06:25:38;22.00;44.90
20091;DHT22;10205;49.678;6.560;2022-07-04T06:28:06;22.00;45.40
20091;DHT22;10205;49.678;6.560;2022-07-04T06:30:33;22.00;46.10
20091;DHT22;10205;49.678;6.560;2022-07-04T06:33:01;22.00;45.80
20091;DHT22;10205;49.678;6.560;2022-07-04T06:35:29;22.00;45.40
20091;DHT22;10205;49.678;6.560;2022-07-04T06:38:15;22.00;46.00
20091;DHT22;10205;49.678;6.560;2022-07-04T06:40:44;22.00;45.90
20091;DHT22;10205;49.678;6.560;2022-07-04T06:43:13;22.00;45.60
20091;DHT22;10205;49.678;6.560;2022-07-04T06:45:40;22.00;46.20
20091;DHT22;10205;49.678;6.560;2022-07-04T06:48:07;22.00;46.00
20091;DHT22;10205;49.678;6.560;2022-07-04T06:50:35;22.00;45.60
20091;DHT22;10205;49.678;6.560;2022-07-04T06:53:04;22.00;46.20
20091;DHT22;10205;49.678;6.560;2022-07-04T06:55:35;22.10;46.00
20091;DHT22;10205;49.678;6.560;2022-07-04T06:58:04;22.10;46.10
20091;DHT22;10205;49.678;6.560;2022-07-04T07:00:34;22.10;46.10
20091;DHT22;10205;49.678;6.560;2022-07-04T07:03:02;22.20;46.10
20091;DHT22;10205;49.678;6.560;2022-07-04T07:05:30;22.20;46.20
20091;DHT22;10205;49.678;6.560;2022-07-04T07:07:58;22.30;45.90
20091;DHT22;10205;49.678;6.560;2022-07-04T07:10:25;22.40;45.80
20091;DHT22;10205;49.678;6.560;2022-07-04T07:12:52;22.40;45.70
20091;DHT22;10205;49.678;6.560;2022-07-04T07:15:19;22.50;46.00
20091;DHT22;10205;49.678;6.560;2022-07-04T07:17:47;22.50;46.20
20091;DHT22;10205;49.678;6.560;2022-07-04T07:20:15;22.50;45.60
20091;DHT22;10205;49.678;6.560;2022-07-04T07:22:42;22.60;45.60
20091;DHT22;10205;49.678;6.560;2022-07-04T07:25:09;22.70;45.50
20091;DHT22;10205;49.678;6.560;2022-07-04T07:27:37;22.70;45.30
20091;DHT22;10205;49.678;6.560;2022-07-04T07:30:05;22.80;45.20
20091;DHT22;10205;49.678;6.560;2022-07-04T07:32:34;22.80;45.40
20091;DHT22;10205;49.678;6.560;2022-07-04T07:35:03;22.90;45.40
20091;DHT22;10205;49.678;6.560;2022-07-04T07:37:31;23.00;45.40
20091;DHT22;10205;49.678;6.560;2022-07-04T07:39:58;23.00;45.10
20091;DHT22;10205;49.678;6.560;2022-07-04T07:42:25;23.10;44.90
20091;DHT22;10205;49.678;6.560;2022-07-04T07:44:52;23.10;45.00
20091;DHT22;10205;49.678;6.560;2022-07-04T07:47:19;23.20;45.50
20091;DHT22;10205;49.678;6.560;2022-07-04T07:49:46;23.20;44.60
20091;DHT22;10205;49.678;6.560;2022-07-04T07:52:15;23.30;43.90
20091;DHT22;10205;49.678;6.560;2022-07-04T07:54:43;23.40;44.00
20091;DHT22;10205;49.678;6.560;2022-07-04T07:57:10;23.40;43.70
20091;DHT22;10205;49.678;6.560;2022-07-04T07:59:37;23.50;43.60
20091;DHT22;10205;49.678;6.560;2022-07-04T08:02:04;23.60;43.30
20091;DHT22;10205;49.678;6.560;2022-07-04T08:04:32;23.60;43.20
20091;DHT22;10205;49.678;6.560;2022-07-04T08:07:01;23.70;43.00
20091;DHT22;10205;49.678;6.560;2022-07-04T08:09:30;23.80;42.60
20091;DHT22;10205;49.678;6.560;2022-07-04T08:11:58;23.80;42.20
20091;DHT22;10205;49.678;6.560;2022-07-04T08:14:26;23.90;42.10
20091;DHT22;10205;49.678;6.560;2022-07-04T08:16:54;23.90;42.10
20091;DHT22;10205;49.678;6.560;2022-07-04T08:19:22;24.00;42.20
20091;DHT22;10205;49.678;6.560;2022-07-04T08:21:50;24.10;42.20
20091;DHT22;10205;49.678;6.560;2022-07-04T08:24:18;24.10;42.50
20091;DHT22;10205;49.678;6.560;2022-07-04T08:26:47;24.20;42.00
20091;DHT22;10205;49.678;6.560;2022-07-04T08:29:14;24.30;41.30
20091;DHT22;10205;49.678;6.560;2022-07-04T08:31:41;24.40;41.70
20091;DHT22;10205;49.678;6.560;2022-07-04T08:34:08;24.40;41.00
20091;DHT22;10205;49.678;6.560;2022-07-04T08:36:36;24.50;40.80
20091;DHT22;10205;49.678;6.560;2022-07-04T08:39:03;24.60;40.10
20091;DHT22;10205;49.678;6.560;2022-07-04T08:41:36;24.70;40.30
20091;DHT22;10205;49.678;6.560;2022-07-04T08:44:07;24.70;41.20
20091;DHT22;10205;49.678;6.560;2022-07-04T08:46:38;24.80;40.80
20091;DHT22;10205;49.678;6.560;2022-07-04T08:49:17;24.90;40.60
20091;DHT22;10205;49.678;6.560;2022-07-04T08:51:51;25.00;40.70
20091;DHT22;10205;49.678;6.560;2022-07-04T08:54:22;25.00;40.70
20091;DHT22;10205;49.678;6.560;2022-07-04T08:57:09;25.10;40.20
20091;DHT22;10205;49.678;6.560;2022-07-04T08:59:57;25.20;40.00
20091;DHT22;10205;49.678;6.560;2022-07-04T09:02:26;25.30;40.10
20091;DHT22;10205;49.678;6.560;2022-07-04T09:04:55;25.40;39.90
20091;DHT22;10205;49.678;6.560;2022-07-04T09:07:22;25.50;39.00
20091;DHT22;10205;49.678;6.560;2022-07-04T09:09:49;25.60;40.00
20091;DHT22;10205;49.678;6.560;2022-07-04T09:12:18;25.60;39.20
20091;DHT22;10205;49.678;6.560;2022-07-04T09:14:45;25.70;39.40
20091;DHT22;10205;49.678;6.560;2022-07-04T09:17:14;25.80;39.40
20091;DHT22;10205;49.678;6.560;2022-07-04T09:19:42;25.90;39.40
20091;DHT22;10205;49.678;6.560;2022-07-04T09:22:10;25.90;39.20
20091;DHT22;10205;49.678;6.560;2022-07-04T09:24:48;26.00;38.80
20091;DHT22;10205;49.678;6.560;2022-07-04T09:27:29;26.10;38.30
20091;DHT22;10205;49.678;6.560;2022-07-04T09:29:58;26.20;38.60
20091;DHT22;10205;49.678;6.560;2022-07-04T09:32:45;26.30;38.60
20091;DHT22;10205;49.678;6.560;2022-07-04T09:35:16;26.30;38.00
20091;DHT22;10205;49.678;6.560;2022-07-04T09:37:45;26.40;37.70
20091;DHT22;10205;49.678;6.560;2022-07-04T09:40:24;26.50;37.70
20091;DHT22;10205;49.678;6.560;2022-07-04T09:42:54;26.60;37.80
20091;DHT22;10205;49.678;6.560;2022-07-04T09:45:23;26.70;37.50
20091;DHT22;10205;49.678;6.560;2022-07-04T09:47:54;26.80;38.00
20091;DHT22;10205;49.678;6.560;2022-07-04T09:50:24;26.80;37.30
20091;DHT22;10205;49.678;6.560;2022-07-04T09:52:54;26.90;37.40
20091;DHT22;10205;49.678;6.560;2022-07-04T09:55:24;27.00;37.50
20091;DHT22;10205;49.678;6.560;2022-07-04T09:57:54;27.10;37.20
20091;DHT22;10205;49.678;6.560;2022-07-04T10:00:23;27.20;36.90
20091;DHT22;10205;49.678;6.560;2022-07-04T10:02:54;27.30;36.60
20091;DHT22;10205;49.678;6.560;2022-07-04T10:05:24;27.30;36.50
20091;DHT22;10205;49.678;6.560;2022-07-04T10:07:55;27.40;36.00
20091;DHT22;10205;49.678;6.560;2022-07-04T10:10:31;27.50;36.50
20091;DHT22;10205;49.678;6.560;2022-07-04T10:13:02;27.60;35.90
20091;DHT22;10205;49.678;6.560;2022-07-04T10:15:32;27.70;36.40
20091;DHT22;10205;49.678;6.560;2022-07-04T10:18:02;27.70;36.20
20091;DHT22;10205;49.678;6.560;2022-07-04T10:20:30;27.80;36.30
20091;DHT22;10205;49.678;6.560;2022-07-04T10:22:58;27.90;35.40
20091;DHT22;10205;49.678;6.560;2022-07-04T10:25:26;27.90;35.60
20091;DHT22;10205;49.678;6.560;2022-07-04T10:27:53;28.00;35.30
20091;DHT22;10205;49.678;6.560;2022-07-04T10:30:23;28.00;35.30
20091;DHT22;10205;49.678;6.560;2022-07-04T10:32:56;28.10;34.60
20091;DHT22;10205;49.678;6.560;2022-07-04T10:35:53;28.10;35.20
20091;DHT22;10205;49.678;6.560;2022-07-04T10:38:23;28.20;35.40
20091;DHT22;10205;49.678;6.560;2022-07-04T10:40:53;28.20;35.80
20091;DHT22;10205;49.678;6.560;2022-07-04T10:46:37;28.40;35.10
20091;DHT22;10205;49.678;6.560;2022-07-04T10:49:18;28.50;35.20
20091;DHT22;10205;49.678;6.560;2022-07-04T10:51:51;28.60;34.80
20091;DHT22;10205;49.678;6.560;2022-07-04T10:54:21;28.70;34.70
20091;DHT22;10205;49.678;6.560;2022-07-04T10:56:55;28.80;34.50
20091;DHT22;10205;49.678;6.560;2022-07-04T10:59:26;28.80;34.20
20091;DHT22;10205;49.678;6.560;2022-07-04T11:02:28;28.90;34.60
20091;DHT22;10205;49.678;6.560;2022-07-04T11:04:59;28.90;33.70
20091;DHT22;10205;49.678;6.560;2022-07-04T11:07:57;29.00;33.90
20091;DHT22;10205;49.678;6.560;2022-07-04T11:10:31;29.10;34.60
20091;DHT22;10205;49.678;6.560;2022-07-04T11:13:23;29.20;33.20
20091;DHT22;10205;49.678;6.560;2022-07-04T11:16:04;29.20;33.50
20091;DHT22;10205;49.678;6.560;2022-07-04T11:18:44;29.30;32.40
20091;DHT22;10205;49.678;6.560;2022-07-04T11:21:22;29.30;32.60
20091;DHT22;10205;49.678;6.560;2022-07-04T11:23:55;29.30;33.10
20091;DHT22;10205;49.678;6.560;2022-07-04T11:26:23;29.40;33.20
20091;DHT22;10205;49.678;6.560;2022-07-04T11:28:51;29.40;32.90
20091;DHT22;10205;49.678;6.560;2022-07-04T11:31:18;29.50;32.90
20091;DHT22;10205;49.678;6.560;2022-07-04T11:33:45;29.50;32.80
20091;DHT22;10205;49.678;6.560;2022-07-04T11:36:15;29.60;32.80
20091;DHT22;10205;49.678;6.560;2022-07-04T11:38:49;29.70;32.80
20091;DHT22;10205;49.678;6.560;2022-07-04T11:41:22;29.70;32.00
20091;DHT22;10205;49.678;6.560;2022-07-04T11:44:10;29.80;32.10
20091;DHT22;10205;49.678;6.560;2022-07-04T11:47:17;29.80;31.80
20091;DHT22;10205;49.678;6.560;2022-07-04T11:49:47;29.80;31.60
20091;DHT22;10205;49.678;6.560;2022-07-04T11:52:17;29.90;32.00
20091;DHT22;10205;49.678;6.560;2022-07-04T11:54:46;29.90;32.00
20091;DHT22;10205;49.678;6.560;2022-07-04T11:57:18;30.00;31.50
20091;DHT22;10205;49.678;6.560;2022-07-04T11:59:55;30.00;31.30
20091;DHT22;10205;49.678;6.560;2022-07-04T12:02:26;30.10;31.30
20091;DHT22;10205;49.678;6.560;2022-07-04T12:04:54;30.10;31.40
20091;DHT22;10205;49.678;6.560;2022-07-04T12:07:24;30.10;30.90
20091;DHT22;10205;49.678;6.560;2022-07-04T12:09:53;30.20;30.00
20091;DHT22;10205;49.678;6.560;2022-07-04T12:12:23;30.20;30.50
20091;DHT22;10205;49.678;6.560;2022-07-04T12:14:57;30.20;30.20
20091;DHT22;10205;49.678;6.560;2022-07-04T12:17:34;30.30;30.30
20091;DHT22;10205;49.678;6.560;2022-07-04T12:20:09;30.30;30.10
20091;DHT22;10205;49.678;6.560;2022-07-04T12:22:41;30.30;30.60
20091;DHT22;10205;49.678;6.560;2022-07-04T12:25:21;30.40;30.00
20091;DHT22;10205;49.678;6.560;2022-07-04T12:27:55;30.40;29.50
20091;DHT22;10205;49.678;6.560;2022-07-04T12:30:24;30.50;29.50
20091;DHT22;10205;49.678;6.560;2022-07-04T12:32:57;30.50;30.00
20091;DHT22;10205;49.678;6.560;2022-07-04T12:35:36;30.60;29.90
20091;DHT22;10205;49.678;6.560;2022-07-04T12:38:07;30.60;29.70
20091;DHT22;10205;49.678;6.560;2022-07-04T12:40:36;30.70;29.50
20091;DHT22;10205;49.678;6.560;2022-07-04T12:43:16;30.70;29.50
20091;DHT22;10205;49.678;6.560;2022-07-04T12:45:45;30.80;29.20
20091;DHT22;10205;49.678;6.560;2022-07-04T12:48:15;30.80;29.50
20091;DHT22;10205;49.678;6.560;2022-07-04T12:50:48;30.80;29.10
20091;DHT22;10205;49.678;6.560;2022-07-04T12:53:16;30.90;29.60
20091;DHT22;10205;49.678;6.560;2022-07-04T12:55:45;31.00;29.80
20091;DHT22;10205;49.678;6.560;2022-07-04T12:58:13;31.00;29.30
20091;DHT22;10205;49.678;6.560;2022-07-04T13:00:42;31.10;29.20
20091;DHT22;10205;49.678;6.560;2022-07-04T13:03:09;31.20;29.00
20091;DHT22;10205;49.678;6.560;2022-07-04T13:05:37;31.30;29.00
20091;DHT22;10205;49.678;6.560;2022-07-04T13:08:05;31.40;28.80
20091;DHT22;10205;49.678;6.560;2022-07-04T13:10:33;31.50;28.60
20091;DHT22;10205;49.678;6.560;2022-07-04T13:13:01;31.50;28.60
20091;DHT22;10205;49.678;6.560;2022-07-04T13:15:28;31.60;28.20
20091;DHT22;10205;49.678;6.560;2022-07-04T13:17:57;31.60;28.10
20091;DHT22;10205;49.678;6.560;2022-07-04T13:20:25;31.70;27.90
20091;DHT22;10205;49.678;6.560;2022-07-04T13:22:52;31.80;28.00
20091;DHT22;10205;49.678;6.560;2022-07-04T13:25:19;31.80;28.40
20091;DHT22;10205;49.678;6.560;2022-07-04T13:27:47;31.80;27.80
20091;DHT22;10205;49.678;6.560;2022-07-04T13:30:14;31.80;27.90
20091;DHT22;10205;49.678;6.560;2022-07-04T13:32:41;31.90;28.30
20091;DHT22;10205;49.678;6.560;2022-07-04T13:35:10;31.90;28.10
20091;DHT22;10205;49.678;6.560;2022-07-04T13:37:37;32.00;28.10
20091;DHT22;10205;49.678;6.560;2022-07-04T13:40:06;32.00;28.00
20091;DHT22;10205;49.678;6.560;2022-07-04T13:42:33;32.10;27.80
20091;DHT22;10205;49.678;6.560;2022-07-04T13:45:18;32.10;27.50
20091;DHT22;10205;49.678;6.560;2022-07-04T13:47:45;32.10;27.60
20091;DHT22;10205;49.678;6.560;2022-07-04T13:50:13;32.00;27.40
20091;DHT22;10205;49.678;6.560;2022-07-04T13:52:40;32.10;27.70
20091;DHT22;10205;49.678;6.560;2022-07-04T13:55:08;32.00;27.80
20091;DHT22;10205;49.678;6.560;2022-07-04T13:57:36;32.10;28.10
20091;DHT22;10205;49.678;6.560;2022-07-04T14:00:05;32.20;27.80
20091;DHT22;10205;49.678;6.560;2022-07-04T14:02:35;32.10;28.00
20091;DHT22;10205;49.678;6.560;2022-07-04T14:05:02;32.10;27.60
20091;DHT22;10205;49.678;6.560;2022-07-04T14:07:31;32.20;27.70
20091;DHT22;10205;49.678;6.560;2022-07-04T14:09:59;32.10;27.70
20091;DHT22;10205;49.678;6.560;2022-07-04T14:12:26;32.10;28.10
20091;DHT22;10205;49.678;6.560;2022-07-04T14:14:53;32.10;27.80
20091;DHT22;10205;49.678;6.560;2022-07-04T14:17:20;32.10;27.70
20091;DHT22;10205;49.678;6.560;2022-07-04T14:19:48;32.10;28.10
20091;DHT22;10205;49.678;6.560;2022-07-04T14:22:15;32.10;28.00
20091;DHT22;10205;49.678;6.560;2022-07-04T14:24:43;32.20;28.40
20091;DHT22;10205;49.678;6.560;2022-07-04T14:27:10;32.20;27.60
20091;DHT22;10205;49.678;6.560;2022-07-04T14:29:38;32.20;27.90
20091;DHT22;10205;49.678;6.560;2022-07-04T14:32:07;32.20;28.10
20091;DHT22;10205;49.678;6.560;2022-07-04T14:34:34;32.20;27.60
20091;DHT22;10205;49.678;6.560;2022-07-04T14:37:01;32.20;27.10
20091;DHT22;10205;49.678;6.560;2022-07-04T14:39:28;32.20;27.60
20091;DHT22;10205;49.678;6.560;2022-07-04T14:41:56;32.20;27.40
20091;DHT22;10205;49.678;6.560;2022-07-04T14:44:24;32.30;27.60
20091;DHT22;10205;49.678;6.560;2022-07-04T14:46:51;32.30;27.50
20091;DHT22;10205;49.678;6.560;2022-07-04T14:49:18;32.30;27.80
20091;DHT22;10205;49.678;6.560;2022-07-04T14:51:45;32.40;27.60
20091;DHT22;10205;49.678;6.560;2022-07-04T14:54:15;32.40;27.60
20091;DHT22;10205;49.678;6.560;2022-07-04T14:56:42;32.50;27.50
20091;DHT22;10205;49.678;6.560;2022-07-04T14:59:11;32.60;27.10
20091;DHT22;10205;49.678;6.560;2022-07-04T15:01:38;32.60;26.90
20091;DHT22;10205;49.678;6.560;2022-07-04T15:04:05;32.60;27.50
20091;DHT22;10205;49.678;6.560;2022-07-04T15:06:32;32.60;27.20
20091;DHT22;10205;49.678;6.560;2022-07-04T15:08:59;32.60;27.20
20091;DHT22;10205;49.678;6.560;2022-07-04T15:11:28;32.70;27.20
20091;DHT22;10205;49.678;6.560;2022-07-04T15:13:55;32.70;27.20
20091;DHT22;10205;49.678;6.560;2022-07-04T15:16:24;32.70;27.10
20091;DHT22;10205;49.678;6.560;2022-07-04T15:18:51;32.80;27.70
20091;DHT22;10205;49.678;6.560;2022-07-04T15:21:19;32.80;27.10
20091;DHT22;10205;49.678;6.560;2022-07-04T15:24:04;32.80;26.80
20091;DHT22;10205;49.678;6.560;2022-07-04T15:26:41;32.80;26.40
20091;DHT22;10205;49.678;6.560;2022-07-04T15:29:10;32.80;26.50
20091;DHT22;10205;49.678;6.560;2022-07-04T15:31:39;32.80;27.00
20091;DHT22;10205;49.678;6.560;2022-07-04T15:34:06;32.80;26.50
20091;DHT22;10205;49.678;6.560;2022-07-04T15:36:34;32.90;27.10
20091;DHT22;10205;49.678;6.560;2022-07-04T15:39:05;32.90;26.60
20091;DHT22;10205;49.678;6.560;2022-07-04T15:41:33;33.00;26.60
20091;DHT22;10205;49.678;6.560;2022-07-04T15:44:01;33.10;26.70
20091;DHT22;10205;49.678;6.560;2022-07-04T15:46:28;33.10;27.00